sensor_id;sensor_type;location;lat;lon;timestamp;P1;durP1;ratioP1;P2;durP2;ratioP2
80870;SDS011;70296;49.226;-122.884;2023-05-25T00:00:24;11.82;;;4.55;;
80870;SDS011;70296;49.226;-122.884;2023-05-25T00:02:51;12.52;;;4.63;;
80870;SDS011;70296;49.226;-122.884;2023-05-25T00:05:19;10.75;;;3.88;;
80870;SDS011;70296;49.226;-122.884;2023-05-25T00:07:45;8.40;;;3.88;;
80870;SDS011;70296;49.226;-122.884;2023-05-25T00:10:12;7.07;;;4.85;;
80870;SDS011;70296;49.226;-122.884;2023-05-25T00:12:38;7.82;;;4.38;;
80870;SDS011;70296;49.226;-122.884;2023-05-25T00:15:05;6.43;;;3.30;;
80870;SDS011;70296;49.226;-122.884;2023-05-25T00:17:31;9.43;;;4.07;;
80870;SDS011;70296;49.226;-122.884;2023-05-25T00:19:58;7.55;;;4.00;;
80870;SDS011;70296;49.226;-122.884;2023-05-25T00:22:34;11.45;;;4.35;;
80870;SDS011;70296;49.226;-122.884;2023-05-25T00:25:03;8.75;;;3.92;;
80870;SDS011;70296;49.226;-122.884;2023-05-25T00:27:33;11.13;;;4.22;;
80870;SDS011;70296;49.226;-122.884;2023-05-25T00:29:59;7.13;;;3.58;;
80870;SDS011;70296;49.226;-122.884;2023-05-25T00:32:25;13.63;;;3.92;;
80870;SDS011;70296;49.226;-122.884;2023-05-25T00:34:52;9.25;;;3.80;;
80870;SDS011;70296;49.226;-122.884;2023-05-25T00:37:19;9.48;;;3.63;;
80870;SDS011;70296;49.226;-122.884;2023-05-25T00:39:45;7.50;;;3.30;;
80870;SDS011;70296;49.226;-122.884;2023-05-25T00:42:11;5.95;;;3.47;;
80870;SDS011;70296;49.226;-122.884;2023-05-25T00:44:38;8.93;;;3.53;;
80870;SDS011;70296;49.226;-122.884;2023-05-25T00:47:04;9.75;;;3.75;;
80870;SDS011;70296;49.226;-122.884;2023-05-25T00:49:31;7.28;;;3.25;;
80870;SDS011;70296;49.226;-122.884;2023-05-25T00:51:59;8.27;;;3.58;;
80870;SDS011;70296;49.226;-122.884;2023-05-25T00:54:25;6.82;;;3.83;;
80870;SDS011;70296;49.226;-122.884;2023-05-25T00:56:55;11.40;;;3.70;;
80870;SDS011;70296;49.226;-122.884;2023-05-25T00:59:36;4.85;;;3.53;;
80870;SDS011;70296;49.226;-122.884;2023-05-25T01:02:09;6.57;;;3.03;;
80870;SDS011;70296;49.226;-122.884;2023-05-25T01:04:42;8.50;;;3.63;;
80870;SDS011;70296;49.226;-122.884;2023-05-25T01:07:10;7.40;;;3.28;;
80870;SDS011;70296;49.226;-122.884;2023-05-25T01:09:40;6.40;;;3.50;;
80870;SDS011;70296;49.226;-122.884;2023-05-25T01:12:09;9.30;;;3.30;;
80870;SDS011;70296;49.226;-122.884;2023-05-25T01:14:37;12.68;;;3.83;;
80870;SDS011;70296;49.226;-122.884;2023-05-25T01:17:10;10.45;;;3.80;;
80870;SDS011;70296;49.226;-122.884;2023-05-25T01:19:36;7.45;;;3.42;;
80870;SDS011;70296;49.226;-122.884;2023-05-25T01:22:07;6.63;;;3.38;;
80870;SDS011;70296;49.226;-122.884;2023-05-25T01:24:53;9.40;;;3.22;;
80870;SDS011;70296;49.226;-122.884;2023-05-25T01:27:30;9.98;;;3.65;;
80870;SDS011;70296;49.226;-122.884;2023-05-25T01:29:58;6.22;;;3.40;;
80870;SDS011;70296;49.226;-122.884;2023-05-25T01:32:25;7.55;;;3.78;;
80870;SDS011;70296;49.226;-122.884;2023-05-25T01:34:51;8.18;;;3.08;;
80870;SDS011;70296;49.226;-122.884;2023-05-25T01:37:20;8.30;;;3.28;;
80870;SDS011;70296;49.226;-122.884;2023-05-25T01:39:48;7.47;;;3.78;;
80870;SDS011;70296;49.226;-122.884;2023-05-25T01:42:15;7.80;;;3.60;;
80870;SDS011;70296;49.226;-122.884;2023-05-25T01:44:41;7.03;;;3.40;;
80870;SDS011;70296;49.226;-122.884;2023-05-25T01:47:28;5.55;;;3.22;;
80870;SDS011;70296;49.226;-122.884;2023-05-25T01:50:05;7.80;;;3.55;;
80870;SDS011;70296;49.226;-122.884;2023-05-25T01:52:40;6.13;;;3.13;;
80870;SDS011;70296;49.226;-122.884;2023-05-25T01:55:14;9.30;;;3.40;;
80870;SDS011;70296;49.226;-122.884;2023-05-25T01:57:44;6.53;;;3.38;;
80870;SDS011;70296;49.226;-122.884;2023-05-25T02:00:11;8.70;;;3.30;;
80870;SDS011;70296;49.226;-122.884;2023-05-25T02:02:39;10.73;;;3.53;;
80870;SDS011;70296;49.226;-122.884;2023-05-25T02:05:07;5.32;;;3.10;;
80870;SDS011;70296;49.226;-122.884;2023-05-25T02:07:34;7.85;;;3.40;;
80870;SDS011;70296;49.226;-122.884;2023-05-25T02:10:01;8.65;;;3.40;;
80870;SDS011;70296;49.226;-122.884;2023-05-25T02:12:27;8.82;;;3.75;;
80870;SDS011;70296;49.226;-122.884;2023-05-25T02:14:53;6.60;;;3.38;;
80870;SDS011;70296;49.226;-122.884;2023-05-25T02:17:20;8.75;;;3.45;;
80870;SDS011;70296;49.226;-122.884;2023-05-25T02:19:46;5.85;;;3.63;;
80870;SDS011;70296;49.226;-122.884;2023-05-25T02:22:17;8.82;;;3.45;;
80870;SDS011;70296;49.226;-122.884;2023-05-25T02:24:43;5.47;;;3.08;;
80870;SDS011;70296;49.226;-122.884;2023-05-25T02:27:10;5.63;;;3.03;;
80870;SDS011;70296;49.226;-122.884;2023-05-25T02:29:37;8.40;;;3.50;;
80870;SDS011;70296;49.226;-122.884;2023-05-25T02:32:04;5.93;;;2.95;;
80870;SDS011;70296;49.226;-122.884;2023-05-25T02:34:30;6.43;;;2.97;;
80870;SDS011;70296;49.226;-122.884;2023-05-25T02:36:57;5.50;;;2.72;;
80870;SDS011;70296;49.226;-122.884;2023-05-25T02:39:23;7.78;;;3.20;;
80870;SDS011;70296;49.226;-122.884;2023-05-25T02:41:52;5.10;;;2.58;;
80870;SDS011;70296;49.226;-122.884;2023-05-25T02:44:18;6.28;;;2.80;;
80870;SDS011;70296;49.226;-122.884;2023-05-25T02:46:46;4.43;;;2.58;;
80870;SDS011;70296;49.226;-122.884;2023-05-25T02:49:12;5.35;;;2.30;;
80870;SDS011;70296;49.226;-122.884;2023-05-25T02:51:39;7.50;;;3.20;;
80870;SDS011;70296;49.226;-122.884;2023-05-25T02:54:05;6.50;;;2.60;;
80870;SDS011;70296;49.226;-122.884;2023-05-25T02:56:31;5.43;;;2.30;;
80870;SDS011;70296;49.226;-122.884;2023-05-25T02:58:57;5.00;;;2.20;;
80870;SDS011;70296;49.226;-122.884;2023-05-25T03:01:23;5.30;;;2.45;;
80870;SDS011;70296;49.226;-122.884;2023-05-25T03:03:50;3.92;;;2.28;;
80870;SDS011;70296;49.226;-122.884;2023-05-25T03:06:19;4.43;;;2.13;;
80870;SDS011;70296;49.226;-122.884;2023-05-25T03:08:50;5.35;;;2.53;;
80870;SDS011;70296;49.226;-122.884;2023-05-25T03:11:16;5.78;;;2.38;;
80870;SDS011;70296;49.226;-122.884;2023-05-25T03:13:42;4.28;;;2.30;;
80870;SDS011;70296;49.226;-122.884;2023-05-25T03:16:08;4.50;;;2.33;;
80870;SDS011;70296;49.226;-122.884;2023-05-25T03:18:35;5.50;;;2.10;;
80870;SDS011;70296;49.226;-122.884;2023-05-25T03:21:01;5.45;;;2.22;;
80870;SDS011;70296;49.226;-122.884;2023-05-25T03:23:27;3.60;;;2.03;;
80870;SDS011;70296;49.226;-122.884;2023-05-25T03:25:53;5.15;;;2.42;;
80870;SDS011;70296;49.226;-122.884;2023-05-25T03:28:19;4.00;;;2.30;;
80870;SDS011;70296;49.226;-122.884;2023-05-25T03:30:45;3.25;;;2.22;;
80870;SDS011;70296;49.226;-122.884;2023-05-25T03:33:11;5.78;;;2.17;;
80870;SDS011;70296;49.226;-122.884;2023-05-25T03:35:38;4.80;;;2.35;;
80870;SDS011;70296;49.226;-122.884;2023-05-25T03:38:05;4.05;;;2.03;;
80870;SDS011;70296;49.226;-122.884;2023-05-25T03:40:31;5.00;;;2.20;;
80870;SDS011;70296;49.226;-122.884;2023-05-25T03:42:57;4.35;;;2.30;;
80870;SDS011;70296;49.226;-122.884;2023-05-25T03:45:23;4.60;;;2.05;;
80870;SDS011;70296;49.226;-122.884;2023-05-25T03:47:49;4.63;;;2.47;;
80870;SDS011;70296;49.226;-122.884;2023-05-25T03:50:15;4.55;;;2.30;;
80870;SDS011;70296;49.226;-122.884;2023-05-25T03:52:42;4.32;;;2.00;;
80870;SDS011;70296;49.226;-122.884;2023-05-25T03:55:08;5.80;;;2.28;;
80870;SDS011;70296;49.226;-122.884;2023-05-25T03:57:35;3.83;;;2.10;;
80870;SDS011;70296;49.226;-122.884;2023-05-25T04:00:01;7.78;;;2.20;;
80870;SDS011;70296;49.226;-122.884;2023-05-25T04:02:28;3.80;;;2.13;;
80870;SDS011;70296;49.226;-122.884;2023-05-25T04:04:54;3.88;;;2.30;;
80870;SDS011;70296;49.226;-122.884;2023-05-25T04:07:21;4.65;;;1.88;;
80870;SDS011;70296;49.226;-122.884;2023-05-25T04:09:47;3.35;;;1.95;;
80870;SDS011;70296;49.226;-122.884;2023-05-25T04:12:13;4.95;;;1.98;;
80870;SDS011;70296;49.226;-122.884;2023-05-25T04:14:39;2.78;;;1.90;;
80870;SDS011;70296;49.226;-122.884;2023-05-25T04:17:06;5.47;;;2.30;;
80870;SDS011;70296;49.226;-122.884;2023-05-25T04:19:33;4.53;;;2.35;;
80870;SDS011;70296;49.226;-122.884;2023-05-25T04:21:59;6.40;;;2.20;;
80870;SDS011;70296;49.226;-122.884;2023-05-25T04:24:25;3.60;;;1.90;;
80870;SDS011;70296;49.226;-122.884;2023-05-25T04:26:51;4.82;;;1.98;;
80870;SDS011;70296;49.226;-122.884;2023-05-25T04:29:18;6.43;;;2.22;;
80870;SDS011;70296;49.226;-122.884;2023-05-25T04:31:44;4.68;;;2.10;;
80870;SDS011;70296;49.226;-122.884;2023-05-25T04:34:11;4.85;;;2.08;;
80870;SDS011;70296;49.226;-122.884;2023-05-25T04:36:39;5.25;;;2.55;;
80870;SDS011;70296;49.226;-122.884;2023-05-25T04:39:07;3.85;;;2.10;;
80870;SDS011;70296;49.226;-122.884;2023-05-25T04:41:34;5.22;;;2.70;;
80870;SDS011;70296;49.226;-122.884;2023-05-25T04:44:02;4.68;;;2.42;;
80870;SDS011;70296;49.226;-122.884;2023-05-25T04:46:28;4.97;;;2.40;;
80870;SDS011;70296;49.226;-122.884;2023-05-25T04:48:56;4.85;;;2.75;;
80870;SDS011;70296;49.226;-122.884;2023-05-25T04:51:22;5.13;;;2.60;;
80870;SDS011;70296;49.226;-122.884;2023-05-25T04:53:48;4.43;;;2.42;;
80870;SDS011;70296;49.226;-122.884;2023-05-25T04:56:15;5.55;;;2.63;;
80870;SDS011;70296;49.226;-122.884;2023-05-25T04:58:42;5.15;;;2.33;;
80870;SDS011;70296;49.226;-122.884;2023-05-25T05:01:08;6.60;;;2.88;;
80870;SDS011;70296;49.226;-122.884;2023-05-25T05:03:34;5.07;;;2.47;;
80870;SDS011;70296;49.226;-122.884;2023-05-25T05:06:01;5.45;;;2.47;;
80870;SDS011;70296;49.226;-122.884;2023-05-25T05:08:27;4.75;;;2.58;;
80870;SDS011;70296;49.226;-122.884;2023-05-25T05:10:53;5.15;;;2.40;;
80870;SDS011;70296;49.226;-122.884;2023-05-25T05:13:19;4.68;;;2.55;;
80870;SDS011;70296;49.226;-122.884;2023-05-25T05:15:46;5.88;;;2.63;;
80870;SDS011;70296;49.226;-122.884;2023-05-25T05:18:12;5.20;;;2.33;;
80870;SDS011;70296;49.226;-122.884;2023-05-25T05:20:38;5.85;;;2.60;;
80870;SDS011;70296;49.226;-122.884;2023-05-25T05:23:04;4.30;;;2.40;;
80870;SDS011;70296;49.226;-122.884;2023-05-25T05:25:30;5.05;;;2.20;;
80870;SDS011;70296;49.226;-122.884;2023-05-25T05:27:56;6.32;;;2.40;;
80870;SDS011;70296;49.226;-122.884;2023-05-25T05:30:23;4.40;;;2.15;;
80870;SDS011;70296;49.226;-122.884;2023-05-25T05:32:49;6.22;;;2.33;;
80870;SDS011;70296;49.226;-122.884;2023-05-25T05:35:15;5.38;;;2.63;;
80870;SDS011;70296;49.226;-122.884;2023-05-25T05:37:41;9.95;;;2.75;;
80870;SDS011;70296;49.226;-122.884;2023-05-25T05:40:08;10.48;;;3.30;;
80870;SDS011;70296;49.226;-122.884;2023-05-25T05:42:35;8.93;;;3.08;;
80870;SDS011;70296;49.226;-122.884;2023-05-25T05:45:01;9.15;;;2.70;;
80870;SDS011;70296;49.226;-122.884;2023-05-25T05:47:27;5.70;;;2.70;;
80870;SDS011;70296;49.226;-122.884;2023-05-25T05:49:53;5.75;;;2.67;;
80870;SDS011;70296;49.226;-122.884;2023-05-25T05:52:19;5.05;;;2.90;;
80870;SDS011;70296;49.226;-122.884;2023-05-25T05:54:45;6.28;;;2.50;;
80870;SDS011;70296;49.226;-122.884;2023-05-25T05:57:12;3.75;;;2.40;;
80870;SDS011;70296;49.226;-122.884;2023-05-25T05:59:38;4.57;;;2.33;;
80870;SDS011;70296;49.226;-122.884;2023-05-25T06:02:04;7.82;;;3.95;;
80870;SDS011;70296;49.226;-122.884;2023-05-25T06:04:31;9.13;;;3.53;;
80870;SDS011;70296;49.226;-122.884;2023-05-25T06:06:58;6.30;;;3.30;;
80870;SDS011;70296;49.226;-122.884;2023-05-25T06:09:24;6.03;;;3.35;;
80870;SDS011;70296;49.226;-122.884;2023-05-25T06:11:50;6.10;;;3.30;;
80870;SDS011;70296;49.226;-122.884;2023-05-25T06:14:17;7.07;;;2.42;;
80870;SDS011;70296;49.226;-122.884;2023-05-25T06:16:43;10.70;;;3.05;;
80870;SDS011;70296;49.226;-122.884;2023-05-25T06:19:09;8.07;;;3.10;;
80870;SDS011;70296;49.226;-122.884;2023-05-25T06:21:35;5.65;;;2.65;;
80870;SDS011;70296;49.226;-122.884;2023-05-25T06:24:02;12.27;;;3.15;;
80870;SDS011;70296;49.226;-122.884;2023-05-25T06:26:29;8.70;;;2.78;;
80870;SDS011;70296;49.226;-122.884;2023-05-25T06:28:56;6.63;;;2.63;;
80870;SDS011;70296;49.226;-122.884;2023-05-25T06:31:22;8.50;;;2.78;;
80870;SDS011;70296;49.226;-122.884;2023-05-25T06:33:48;8.20;;;3.75;;
80870;SDS011;70296;49.226;-122.884;2023-05-25T06:36:14;7.97;;;3.42;;
80870;SDS011;70296;49.226;-122.884;2023-05-25T06:38:40;8.13;;;4.43;;
80870;SDS011;70296;49.226;-122.884;2023-05-25T06:41:07;8.25;;;3.30;;
80870;SDS011;70296;49.226;-122.884;2023-05-25T06:43:34;13.68;;;3.80;;
80870;SDS011;70296;49.226;-122.884;2023-05-25T06:46:00;8.70;;;3.50;;
80870;SDS011;70296;49.226;-122.884;2023-05-25T06:48:26;6.63;;;3.25;;
80870;SDS011;70296;49.226;-122.884;2023-05-25T06:50:52;4.60;;;2.80;;
80870;SDS011;70296;49.226;-122.884;2023-05-25T06:53:18;6.38;;;3.33;;
80870;SDS011;70296;49.226;-122.884;2023-05-25T06:55:44;6.63;;;3.40;;
80870;SDS011;70296;49.226;-122.884;2023-05-25T06:58:11;7.93;;;3.30;;
80870;SDS011;70296;49.226;-122.884;2023-05-25T07:00:37;6.95;;;3.38;;
80870;SDS011;70296;49.226;-122.884;2023-05-25T07:03:03;8.60;;;3.42;;
80870;SDS011;70296;49.226;-122.884;2023-05-25T07:05:29;6.88;;;3.30;;
80870;SDS011;70296;49.226;-122.884;2023-05-25T07:07:56;8.82;;;3.50;;
80870;SDS011;70296;49.226;-122.884;2023-05-25T07:10:22;8.70;;;3.58;;
80870;SDS011;70296;49.226;-122.884;2023-05-25T07:12:48;8.18;;;3.35;;
80870;SDS011;70296;49.226;-122.884;2023-05-25T07:15:14;6.50;;;3.40;;
80870;SDS011;70296;49.226;-122.884;2023-05-25T07:17:40;8.20;;;3.97;;
80870;SDS011;70296;49.226;-122.884;2023-05-25T07:20:07;15.00;;;4.85;;
80870;SDS011;70296;49.226;-122.884;2023-05-25T07:22:34;8.07;;;3.70;;
80870;SDS011;70296;49.226;-122.884;2023-05-25T07:25:01;9.13;;;4.20;;
80870;SDS011;70296;49.226;-122.884;2023-05-25T07:27:28;8.15;;;3.90;;
80870;SDS011;70296;49.226;-122.884;2023-05-25T07:29:54;6.43;;;3.17;;
80870;SDS011;70296;49.226;-122.884;2023-05-25T07:32:21;6.18;;;3.17;;
80870;SDS011;70296;49.226;-122.884;2023-05-25T07:34:47;6.90;;;3.90;;
80870;SDS011;70296;49.226;-122.884;2023-05-25T07:37:13;7.03;;;3.40;;
80870;SDS011;70296;49.226;-122.884;2023-05-25T07:39:39;7.90;;;3.28;;
80870;SDS011;70296;49.226;-122.884;2023-05-25T07:42:05;7.97;;;3.90;;
80870;SDS011;70296;49.226;-122.884;2023-05-25T07:44:31;10.02;;;3.83;;
80870;SDS011;70296;49.226;-122.884;2023-05-25T07:46:58;8.50;;;3.90;;
80870;SDS011;70296;49.226;-122.884;2023-05-25T07:49:24;7.57;;;3.25;;
80870;SDS011;70296;49.226;-122.884;2023-05-25T07:51:50;7.18;;;3.10;;
80870;SDS011;70296;49.226;-122.884;2023-05-25T07:54:16;8.40;;;3.45;;
80870;SDS011;70296;49.226;-122.884;2023-05-25T07:56:42;4.80;;;2.78;;
80870;SDS011;70296;49.226;-122.884;2023-05-25T07:59:08;7.50;;;2.80;;
80870;SDS011;70296;49.226;-122.884;2023-05-25T08:01:35;6.38;;;3.13;;
80870;SDS011;70296;49.226;-122.884;2023-05-25T08:04:01;10.07;;;4.72;;
80870;SDS011;70296;49.226;-122.884;2023-05-25T08:06:27;14.60;;;5.40;;
80870;SDS011;70296;49.226;-122.884;2023-05-25T08:08:54;14.82;;;5.35;;
80870;SDS011;70296;49.226;-122.884;2023-05-25T08:11:23;14.43;;;5.05;;
80870;SDS011;70296;49.226;-122.884;2023-05-25T08:13:50;11.90;;;3.85;;
80870;SDS011;70296;49.226;-122.884;2023-05-25T08:16:17;9.10;;;3.95;;
80870;SDS011;70296;49.226;-122.884;2023-05-25T08:18:43;9.88;;;3.85;;
80870;SDS011;70296;49.226;-122.884;2023-05-25T08:21:11;9.10;;;3.83;;
80870;SDS011;70296;49.226;-122.884;2023-05-25T08:23:38;13.50;;;4.30;;
80870;SDS011;70296;49.226;-122.884;2023-05-25T08:26:09;10.90;;;4.00;;
80870;SDS011;70296;49.226;-122.884;2023-05-25T08:28:36;8.05;;;3.53;;
80870;SDS011;70296;49.226;-122.884;2023-05-25T08:31:02;8.40;;;3.90;;
80870;SDS011;70296;49.226;-122.884;2023-05-25T08:33:29;8.30;;;3.55;;
80870;SDS011;70296;49.226;-122.884;2023-05-25T08:35:56;8.30;;;3.22;;
80870;SDS011;70296;49.226;-122.884;2023-05-25T08:38:23;8.07;;;3.53;;
80870;SDS011;70296;49.226;-122.884;2023-05-25T08:40:58;6.88;;;3.08;;
80870;SDS011;70296;49.226;-122.884;2023-05-25T08:43:30;7.53;;;3.03;;
80870;SDS011;70296;49.226;-122.884;2023-05-25T08:45:58;5.28;;;3.33;;
80870;SDS011;70296;49.226;-122.884;2023-05-25T08:48:30;9.20;;;4.47;;
80870;SDS011;70296;49.226;-122.884;2023-05-25T08:51:00;5.00;;;3.30;;
80870;SDS011;70296;49.226;-122.884;2023-05-25T08:53:33;8.10;;;3.55;;
80870;SDS011;70296;49.226;-122.884;2023-05-25T08:56:12;9.07;;;3.28;;
80870;SDS011;70296;49.226;-122.884;2023-05-25T08:58:45;6.85;;;3.20;;
80870;SDS011;70296;49.226;-122.884;2023-05-25T09:01:22;8.80;;;3.92;;
80870;SDS011;70296;49.226;-122.884;2023-05-25T09:03:52;6.30;;;3.25;;
80870;SDS011;70296;49.226;-122.884;2023-05-25T09:06:19;6.90;;;3.13;;
80870;SDS011;70296;49.226;-122.884;2023-05-25T09:08:45;5.43;;;3.20;;
80870;SDS011;70296;49.226;-122.884;2023-05-25T09:11:12;7.25;;;3.22;;
80870;SDS011;70296;49.226;-122.884;2023-05-25T09:13:39;5.78;;;3.08;;
80870;SDS011;70296;49.226;-122.884;2023-05-25T09:16:05;8.32;;;2.92;;
80870;SDS011;70296;49.226;-122.884;2023-05-25T09:18:31;5.60;;;3.10;;
80870;SDS011;70296;49.226;-122.884;2023-05-25T09:20:57;5.57;;;2.97;;
80870;SDS011;70296;49.226;-122.884;2023-05-25T09:23:24;5.88;;;3.10;;
80870;SDS011;70296;49.226;-122.884;2023-05-25T09:25:50;5.82;;;3.47;;
80870;SDS011;70296;49.226;-122.884;2023-05-25T09:28:18;9.13;;;3.80;;
80870;SDS011;70296;49.226;-122.884;2023-05-25T09:30:45;8.63;;;3.40;;
80870;SDS011;70296;49.226;-122.884;2023-05-25T09:33:11;11.23;;;4.55;;
80870;SDS011;70296;49.226;-122.884;2023-05-25T09:35:39;7.57;;;3.70;;
80870;SDS011;70296;49.226;-122.884;2023-05-25T09:38:05;7.95;;;3.38;;
80870;SDS011;70296;49.226;-122.884;2023-05-25T09:40:32;5.22;;;2.95;;
80870;SDS011;70296;49.226;-122.884;2023-05-25T09:43:02;7.78;;;3.65;;
80870;SDS011;70296;49.226;-122.884;2023-05-25T09:45:29;6.82;;;3.22;;
80870;SDS011;70296;49.226;-122.884;2023-05-25T09:47:56;6.03;;;3.25;;
80870;SDS011;70296;49.226;-122.884;2023-05-25T09:50:22;6.10;;;3.15;;
80870;SDS011;70296;49.226;-122.884;2023-05-25T09:52:54;7.47;;;3.25;;
80870;SDS011;70296;49.226;-122.884;2023-05-25T09:55:22;6.88;;;2.95;;
80870;SDS011;70296;49.226;-122.884;2023-05-25T09:57:52;9.82;;;3.00;;
80870;SDS011;70296;49.226;-122.884;2023-05-25T10:00:19;5.85;;;3.03;;
80870;SDS011;70296;49.226;-122.884;2023-05-25T10:02:49;5.78;;;2.75;;
80870;SDS011;70296;49.226;-122.884;2023-05-25T10:05:15;7.78;;;2.97;;
80870;SDS011;70296;49.226;-122.884;2023-05-25T10:07:43;6.00;;;3.10;;
80870;SDS011;70296;49.226;-122.884;2023-05-25T10:10:11;6.93;;;3.20;;
80870;SDS011;70296;49.226;-122.884;2023-05-25T10:12:43;5.93;;;2.92;;
80870;SDS011;70296;49.226;-122.884;2023-05-25T10:15:12;6.72;;;2.90;;
80870;SDS011;70296;49.226;-122.884;2023-05-25T10:17:44;8.15;;;3.38;;
80870;SDS011;70296;49.226;-122.884;2023-05-25T10:20:20;6.93;;;3.45;;
80870;SDS011;70296;49.226;-122.884;2023-05-25T10:22:55;6.85;;;3.47;;
80870;SDS011;70296;49.226;-122.884;2023-05-25T10:28:08;9.60;;;3.30;;
80870;SDS011;70296;49.226;-122.884;2023-05-25T10:30:54;7.55;;;3.05;;
80870;SDS011;70296;49.226;-122.884;2023-05-25T10:33:22;6.13;;;3.03;;
80870;SDS011;70296;49.226;-122.884;2023-05-25T10:35:49;7.45;;;3.38;;
80870;SDS011;70296;49.226;-122.884;2023-05-25T10:38:18;6.13;;;2.90;;
80870;SDS011;70296;49.226;-122.884;2023-05-25T10:40:47;9.05;;;3.42;;
80870;SDS011;70296;49.226;-122.884;2023-05-25T10:43:17;10.25;;;3.08;;
80870;SDS011;70296;49.226;-122.884;2023-05-25T10:45:44;7.35;;;3.33;;
80870;SDS011;70296;49.226;-122.884;2023-05-25T10:48:11;7.57;;;3.33;;
80870;SDS011;70296;49.226;-122.884;2023-05-25T10:50:38;13.93;;;4.03;;
80870;SDS011;70296;49.226;-122.884;2023-05-25T10:53:05;9.48;;;3.38;;
80870;SDS011;70296;49.226;-122.884;2023-05-25T10:55:41;9.82;;;3.47;;
80870;SDS011;70296;49.226;-122.884;2023-05-25T10:58:12;8.55;;;3.10;;
80870;SDS011;70296;49.226;-122.884;2023-05-25T11:00:39;6.65;;;3.08;;
80870;SDS011;70296;49.226;-122.884;2023-05-25T11:03:05;7.43;;;3.30;;
80870;SDS011;70296;49.226;-122.884;2023-05-25T11:05:33;5.70;;;2.90;;
80870;SDS011;70296;49.226;-122.884;2023-05-25T11:08:01;5.25;;;2.88;;
80870;SDS011;70296;49.226;-122.884;2023-05-25T11:18:44;6.65;;;3.85;;
80870;SDS011;70296;49.226;-122.884;2023-05-25T11:23:55;9.05;;;3.22;;
80870;SDS011;70296;49.226;-122.884;2023-05-25T11:26:23;8.40;;;3.42;;
80870;SDS011;70296;49.226;-122.884;2023-05-25T11:28:54;6.32;;;3.33;;
80870;SDS011;70296;49.226;-122.884;2023-05-25T11:33:59;8.82;;;3.38;;
80870;SDS011;70296;49.226;-122.884;2023-05-25T11:36:33;6.65;;;3.40;;
80870;SDS011;70296;49.226;-122.884;2023-05-25T11:39:00;8.23;;;3.75;;
80870;SDS011;70296;49.226;-122.884;2023-05-25T11:41:27;7.13;;;3.63;;
80870;SDS011;70296;49.226;-122.884;2023-05-25T11:43:54;8.18;;;4.50;;
80870;SDS011;70296;49.226;-122.884;2023-05-25T11:46:23;11.25;;;4.30;;
80870;SDS011;70296;49.226;-122.884;2023-05-25T11:48:50;11.43;;;4.70;;
80870;SDS011;70296;49.226;-122.884;2023-05-25T11:51:22;9.98;;;4.45;;
80870;SDS011;70296;49.226;-122.884;2023-05-25T11:53:50;12.55;;;4.90;;
80870;SDS011;70296;49.226;-122.884;2023-05-25T11:56:17;7.38;;;4.65;;
80870;SDS011;70296;49.226;-122.884;2023-05-25T11:58:48;10.50;;;5.07;;
80870;SDS011;70296;49.226;-122.884;2023-05-25T12:03:50;9.23;;;3.83;;
80870;SDS011;70296;49.226;-122.884;2023-05-25T12:06:27;5.93;;;3.97;;
80870;SDS011;70296;49.226;-122.884;2023-05-25T12:08:54;9.82;;;3.83;;
80870;SDS011;70296;49.226;-122.884;2023-05-25T12:11:28;8.07;;;3.50;;
80870;SDS011;70296;49.226;-122.884;2023-05-25T12:13:57;9.88;;;3.58;;
80870;SDS011;70296;49.226;-122.884;2023-05-25T12:16:24;8.93;;;3.83;;
80870;SDS011;70296;49.226;-122.884;2023-05-25T12:18:51;9.55;;;3.60;;
80870;SDS011;70296;49.226;-122.884;2023-05-25T12:21:18;9.85;;;3.92;;
80870;SDS011;70296;49.226;-122.884;2023-05-25T12:23:47;10.48;;;3.85;;
80870;SDS011;70296;49.226;-122.884;2023-05-25T12:26:14;7.57;;;3.83;;
80870;SDS011;70296;49.226;-122.884;2023-05-25T12:28:57;49.30;;;10.98;;
80870;SDS011;70296;49.226;-122.884;2023-05-25T12:31:36;17.92;;;5.80;;
80870;SDS011;70296;49.226;-122.884;2023-05-25T12:34:10;11.10;;;4.30;;
80870;SDS011;70296;49.226;-122.884;2023-05-25T12:41:54;49.72;;;11.48;;
80870;SDS011;70296;49.226;-122.884;2023-05-25T12:44:25;24.63;;;7.13;;
80870;SDS011;70296;49.226;-122.884;2023-05-25T12:46:56;18.13;;;5.47;;
80870;SDS011;70296;49.226;-122.884;2023-05-25T12:49:47;15.07;;;3.58;;
80870;SDS011;70296;49.226;-122.884;2023-05-25T12:52:31;11.30;;;3.92;;
80870;SDS011;70296;49.226;-122.884;2023-05-25T12:57:47;14.15;;;5.57;;
80870;SDS011;70296;49.226;-122.884;2023-05-25T13:00:20;9.00;;;3.92;;
80870;SDS011;70296;49.226;-122.884;2023-05-25T13:02:48;8.80;;;5.03;;
80870;SDS011;70296;49.226;-122.884;2023-05-25T13:05:18;16.65;;;4.72;;
80870;SDS011;70296;49.226;-122.884;2023-05-25T13:07:48;31.23;;;6.40;;
80870;SDS011;70296;49.226;-122.884;2023-05-25T13:10:15;10.20;;;3.75;;
80870;SDS011;70296;49.226;-122.884;2023-05-25T13:12:42;7.32;;;3.42;;
80870;SDS011;70296;49.226;-122.884;2023-05-25T13:15:15;16.50;;;5.05;;
80870;SDS011;70296;49.226;-122.884;2023-05-25T13:17:46;11.90;;;4.32;;
80870;SDS011;70296;49.226;-122.884;2023-05-25T13:20:13;10.93;;;4.43;;
80870;SDS011;70296;49.226;-122.884;2023-05-25T13:22:41;13.23;;;4.30;;
80870;SDS011;70296;49.226;-122.884;2023-05-25T13:25:12;8.15;;;3.90;;
80870;SDS011;70296;49.226;-122.884;2023-05-25T13:27:48;16.42;;;4.88;;
80870;SDS011;70296;49.226;-122.884;2023-05-25T13:30:15;19.58;;;7.18;;
80870;SDS011;70296;49.226;-122.884;2023-05-25T13:32:42;13.05;;;5.22;;
80870;SDS011;70296;49.226;-122.884;2023-05-25T13:35:08;67.47;;;9.23;;
80870;SDS011;70296;49.226;-122.884;2023-05-25T13:37:43;9.38;;;3.70;;
80870;SDS011;70296;49.226;-122.884;2023-05-25T13:40:10;8.00;;;3.35;;
80870;SDS011;70296;49.226;-122.884;2023-05-25T13:42:36;8.38;;;3.72;;
80870;SDS011;70296;49.226;-122.884;2023-05-25T13:45:02;9.57;;;4.80;;
80870;SDS011;70296;49.226;-122.884;2023-05-25T13:47:29;12.00;;;4.55;;
80870;SDS011;70296;49.226;-122.884;2023-05-25T13:49:55;6.40;;;3.70;;
80870;SDS011;70296;49.226;-122.884;2023-05-25T13:52:21;5.97;;;3.33;;
80870;SDS011;70296;49.226;-122.884;2023-05-25T13:54:47;6.03;;;3.05;;
80870;SDS011;70296;49.226;-122.884;2023-05-25T13:57:13;5.25;;;2.95;;
80870;SDS011;70296;49.226;-122.884;2023-05-25T13:59:39;6.22;;;3.15;;
80870;SDS011;70296;49.226;-122.884;2023-05-25T14:02:06;7.07;;;3.75;;
80870;SDS011;70296;49.226;-122.884;2023-05-25T14:04:32;7.75;;;3.70;;
80870;SDS011;70296;49.226;-122.884;2023-05-25T14:06:58;9.90;;;4.00;;
80870;SDS011;70296;49.226;-122.884;2023-05-25T14:09:25;6.32;;;3.65;;
80870;SDS011;70296;49.226;-122.884;2023-05-25T14:11:51;6.82;;;3.53;;
80870;SDS011;70296;49.226;-122.884;2023-05-25T14:14:17;6.38;;;3.97;;
80870;SDS011;70296;49.226;-122.884;2023-05-25T14:16:43;5.47;;;3.65;;
80870;SDS011;70296;49.226;-122.884;2023-05-25T14:19:10;10.38;;;4.93;;
80870;SDS011;70296;49.226;-122.884;2023-05-25T14:21:36;6.20;;;3.45;;
80870;SDS011;70296;49.226;-122.884;2023-05-25T14:24:02;3.72;;;2.65;;
80870;SDS011;70296;49.226;-122.884;2023-05-25T14:26:29;4.85;;;3.00;;
80870;SDS011;70296;49.226;-122.884;2023-05-25T14:28:55;5.70;;;3.30;;
80870;SDS011;70296;49.226;-122.884;2023-05-25T14:31:21;5.22;;;3.10;;
80870;SDS011;70296;49.226;-122.884;2023-05-25T14:33:47;5.93;;;3.03;;
80870;SDS011;70296;49.226;-122.884;2023-05-25T14:36:13;9.55;;;3.25;;